Time;durP1;ratioP1;P1;durP2;ratioP2;P2;SDS_P1;SDS_P2;PMS_P1;PMS_P2;Temp;Humidity;BMP_temperature;BMP_pressure;BME280_temperature;BME280_humidity;BME280_pressure;Samples;Min_cycle;Max_cycle;Signal;HPM_P1;HPM_P2
2022/10/22 00:01:50;;;;;;;42.60;24.00;;;;;;;8.42;100.00;95516.34;5050902;28;20201;-78
2022/10/22 00:04:17;;;;;;;42.83;24.07;;;;;;;8.49;100.00;95511.19;5050541;28;20209;-78
2022/10/22 00:06:44;;;;;;;41.20;23.73;;;;;;;8.51;99.42;95524.78;5050706;28;20248;-78
2022/10/22 00:09:11;;;;;;;40.20;24.83;;;;;;;8.43;100.00;95522.28;5050554;28;20221;-79
2022/10/22 00:11:39;;;;;;;42.10;24.70;;;;;;;8.35;100.00;95514.63;5053536;28;20244;-78
2022/10/22 00:14:06;;;;;;;42.97;24.93;;;;;;;8.36;100.00;95506.72;5046062;28;20216;-77
2022/10/22 00:16:33;;;;;;;48.30;25.73;;;;;;;8.34;100.00;95520.81;5054245;28;20194;-77
2022/10/22 00:18:59;;;;;;;43.97;25.90;;;;;;;8.31;100.00;95523.78;5053791;28;20217;-77
2022/10/22 00:21:27;;;;;;;42.20;26.23;;;;;;;8.33;100.00;95517.44;5054115;28;20194;-77
2022/10/22 00:23:54;;;;;;;55.90;28.77;;;;;;;8.33;100.00;95514.03;5053654;28;20660;-77
2022/10/22 00:26:22;;;;;;;54.50;28.87;;;;;;;8.33;100.00;95514.03;5054007;28;20545;-78
2022/10/22 00:28:50;;;;;;;50.10;28.10;;;;;;;8.34;100.00;95503.47;5051154;28;20190;-77
2022/10/22 00:31:18;;;;;;;53.03;29.17;;;;;;;8.38;100.00;95496.97;5053749;28;20663;-78
2022/10/22 00:33:48;;;;;;;49.37;26.07;;;;;;;8.32;100.00;95489.09;5054648;28;20281;-80
2022/10/22 00:36:15;;;;;;;44.13;26.57;;;;;;;8.20;100.00;95501.69;5054927;28;20247;-78
2022/10/22 00:38:43;;;;;;;46.73;27.67;;;;;;;8.21;100.00;95505.09;5056408;28;20244;-78
2022/10/22 00:41:10;;;;;;;46.50;28.27;;;;;;;8.15;100.00;95492.88;5053462;28;20711;-79
2022/10/22 00:43:56;;;;;;;52.17;28.57;;;;;;;8.19;100.00;95499.31;5053518;28;20696;-78
2022/10/22 00:46:23;;;;;;;53.93;31.40;;;;;;;8.08;100.00;95504.94;5053430;28;20208;-78
2022/10/22 00:48:52;;;;;;;48.87;29.63;;;;;;;8.13;100.00;95506.00;5053129;28;20194;-78
2022/10/22 00:51:21;;;;;;;46.97;28.70;;;;;;;8.06;100.00;95505.13;5053025;28;20210;-77
2022/10/22 00:53:53;;;;;;;44.57;27.57;;;;;;;8.04;100.00;95494.16;5051151;28;20675;-78
2022/10/22 00:56:20;;;;;;;42.80;25.57;;;;;;;8.02;100.00;95503.09;5053665;28;20213;-77
2022/10/22 00:58:52;;;;;;;47.73;26.43;;;;;;;8.05;100.00;95489.78;5052606;28;20190;-77
2022/10/22 01:01:23;;;;;;;45.57;26.97;;;;;;;8.10;100.00;95495.22;5052539;28;20296;-77
2022/10/22 01:03:50;;;;;;;45.07;29.23;;;;;;;8.09;100.00;95493.59;5050686;28;20243;-78
2022/10/22 01:06:25;;;;;;;38.50;23.23;;;;;;;8.02;100.00;95478.78;5053870;28;20198;-78
2022/10/22 01:09:03;;;;;;;39.20;24.13;;;;;;;7.95;100.00;95475.34;5052953;28;20190;-78
2022/10/22 01:11:40;;;;;;;36.90;23.63;;;;;;;7.92;100.00;95464.53;5053137;28;20218;-77
2022/10/22 01:14:17;;;;;;;36.53;24.27;;;;;;;7.91;100.00;95463.72;5050619;28;20204;-77
2022/10/22 01:16:53;;;;;;;39.60;24.07;;;;;;;7.87;100.00;95464.28;5052894;28;20205;-78
2022/10/22 01:19:42;;;;;;;33.77;21.30;;;;;;;7.91;100.00;95462.91;5053246;28;20565;-79
2022/10/22 01:22:17;;;;;;;36.83;22.23;;;;;;;7.94;100.00;95459.97;5032830;28;20740;-77
2022/10/22 01:24:56;;;;;;;42.27;25.10;;;;;;;7.90;100.00;95462.16;5052950;28;20193;-78
2022/10/22 01:27:51;;;;;;;39.80;25.03;;;;;;;7.94;100.00;95458.19;5053336;28;20260;-78
2022/10/22 01:30:20;;;;;;;41.27;24.97;;;;;;;7.96;100.00;95451.03;5050505;28;20210;-78
2022/10/22 01:32:51;;;;;;;40.67;22.47;;;;;;;7.88;100.00;95445.97;5053480;28;20202;-78
2022/10/22 01:35:22;;;;;;;35.40;22.20;;;;;;;7.86;100.00;95442.78;5053082;28;20542;-77
2022/10/22 01:37:52;;;;;;;36.23;20.73;;;;;;;7.89;100.00;95433.84;5052801;28;20614;-77
2022/10/22 01:40:20;;;;;;;40.17;22.80;;;;;;;7.88;100.00;95435.63;5053644;28;20190;-79
2022/10/22 01:42:56;;;;;;;36.43;22.67;;;;;;;7.85;100.00;95438.56;5048232;28;20229;-77
2022/10/22 01:45:25;;;;;;;41.60;24.20;;;;;;;7.87;100.00;95436.63;5052515;28;20267;-78
2022/10/22 01:48:00;;;;;;;39.03;22.87;;;;;;;7.73;100.00;95428.88;5052980;28;20205;-77
2022/10/22 01:51:11;;;;;;;37.07;22.60;;;;;;;7.77;100.00;95433.50;5052900;28;20201;-77
2022/10/22 01:53:44;;;;;;;37.73;23.30;;;;;;;7.72;100.00;95443.59;4959873;28;20193;-78
2022/10/22 01:56:28;;;;;;;37.03;22.33;;;;;;;7.73;100.00;95440.03;4964240;28;20244;-78
2022/10/22 01:59:04;;;;;;;39.27;23.00;;;;;;;7.68;100.00;95442.34;5021705;28;20664;-77
2022/10/22 02:01:41;;;;;;;40.37;23.53;;;;;;;7.67;100.00;95442.53;5052945;28;20212;-77
2022/10/22 02:04:15;;;;;;;32.73;22.30;;;;;;;7.66;100.00;95443.50;5050031;28;20193;-78
2022/10/22 02:06:45;;;;;;;36.33;22.83;;;;;;;7.66;100.00;95446.09;5052583;28;20185;-77
2022/10/22 02:09:15;;;;;;;44.50;24.40;;;;;;;7.61;100.00;95438.09;5051759;28;20186;-80
2022/10/22 02:11:44;;;;;;;37.03;23.57;;;;;;;7.61;100.00;95436.31;5052451;28;20232;-77
2022/10/22 02:14:13;;;;;;;37.77;22.90;;;;;;;7.63;100.00;95436.91;5037600;28;20209;-78
2022/10/22 02:16:44;;;;;;;43.13;24.50;;;;;;;7.59;100.00;95427.91;5051932;28;20208;-80
2022/10/22 02:19:17;;;;;;;36.30;23.07;;;;;;;7.61;100.00;95433.72;5049564;28;20660;-79
2022/10/22 02:21:45;;;;;;;42.83;23.23;;;;;;;7.44;100.00;95424.56;5052092;28;20186;-78
2022/10/22 02:24:12;;;;;;;34.80;22.03;;;;;;;7.26;100.00;95424.91;5051330;28;20197;-77
2022/10/22 02:26:42;;;;;;;38.97;21.43;;;;;;;7.02;100.00;95401.09;5051859;28;20202;-79
2022/10/22 02:29:14;;;;;;;38.07;23.03;;;;;;;7.15;100.00;95437.47;5052292;28;20263;-77
2022/10/22 02:31:45;;;;;;;38.97;22.63;;;;;;;7.19;100.00;95436.94;5051674;28;20268;-78
2022/10/22 02:34:17;;;;;;;39.57;24.43;;;;;;;7.23;100.00;95433.03;5043642;28;20282;-79
2022/10/22 02:36:46;;;;;;;42.80;24.77;;;;;;;7.31;100.00;95440.69;5052010;28;20563;-77
2022/10/22 02:39:15;;;;;;;43.00;24.97;;;;;;;7.25;100.00;95433.63;5051580;28;20255;-78
2022/10/22 02:41:42;;;;;;;45.27;25.13;;;;;;;7.34;100.00;95452.44;5051866;28;20190;-78
2022/10/22 02:44:10;;;;;;;41.33;23.57;;;;;;;7.36;100.00;95445.31;5048417;28;20291;-78
2022/10/22 02:46:38;;;;;;;41.17;23.80;;;;;;;7.39;100.00;95452.72;5052172;28;20194;-79
2022/10/22 02:49:06;;;;;;;45.57;24.53;;;;;;;7.39;100.00;95457.88;5051665;28;20680;-78
2022/10/22 02:51:34;;;;;;;40.47;24.33;;;;;;;7.39;100.00;95450.94;5051705;28;20214;-79
2022/10/22 02:54:00;;;;;;;43.60;24.53;;;;;;;7.42;100.00;95448.00;5051214;28;20201;-78
2022/10/22 02:56:27;;;;;;;41.63;24.40;;;;;;;7.35;100.00;95448.88;5050667;28;20198;-78
2022/10/22 02:58:54;;;;;;;39.87;24.33;;;;;;;7.43;100.00;95443.63;5051369;28;20190;-78
2022/10/22 03:01:21;;;;;;;40.07;23.60;;;;;;;7.37;100.00;95446.91;5051508;28;20264;-78
2022/10/22 03:03:47;;;;;;;42.23;24.80;;;;;;;7.31;100.00;95445.03;5051387;28;20561;-78
2022/10/22 03:06:15;;;;;;;46.23;24.77;;;;;;;7.40;100.00;95452.53;5052211;28;20194;-79
2022/10/22 03:08:42;;;;;;;44.43;24.50;;;;;;;7.39;100.00;95448.34;5051855;28;20668;-78
2022/10/22 03:11:09;;;;;;;49.40;25.90;;;;;;;7.39;100.00;95434.59;5046306;28;20221;-78
2022/10/22 03:13:36;;;;;;;44.57;24.67;;;;;;;7.29;100.00;95424.56;5049713;28;20214;-78
2022/10/22 03:16:03;;;;;;;41.57;25.97;;;;;;;7.35;100.00;95435.97;5051212;28;20183;-78
2022/10/22 03:18:30;;;;;;;44.60;22.40;;;;;;;7.27;100.00;95438.66;5051533;28;20186;-78
2022/10/22 03:21:04;;;;;;;35.33;20.03;;;;;;;7.16;100.00;95437.28;5051310;28;20186;-77
2022/10/22 03:23:33;;;;;;;41.53;20.43;;;;;;;7.09;100.00;95438.19;5051182;28;20625;-78
2022/10/22 03:26:00;;;;;;;32.93;20.07;;;;;;;6.98;100.00;95436.03;5051611;28;20248;-77
2022/10/22 03:28:27;;;;;;;33.70;20.77;;;;;;;6.96;100.00;95428.44;5051098;28;20198;-78
2022/10/22 03:30:54;;;;;;;37.03;21.20;;;;;;;7.06;100.00;95436.75;5051317;28;20679;-78
2022/10/22 03:33:21;;;;;;;46.47;24.87;;;;;;;7.09;100.00;95433.00;5050871;28;20225;-78
2022/10/22 03:35:48;;;;;;;40.47;22.97;;;;;;;7.12;100.00;95430.06;5051514;28;20236;-78
2022/10/22 03:38:15;;;;;;;36.50;22.50;;;;;;;7.14;100.00;95435.84;5051472;28;20630;-79
2022/10/22 03:40:46;;;;;;;39.13;22.30;;;;;;;7.13;100.00;95429.88;5052325;28;20186;-78
2022/10/22 03:43:13;;;;;;;39.10;23.60;;;;;;;7.20;100.00;95417.06;5046599;28;20222;-78
2022/10/22 03:45:40;;;;;;;38.23;22.73;;;;;;;7.26;100.00;95422.31;5052655;28;20214;-78
2022/10/22 03:48:07;;;;;;;39.93;23.17;;;;;;;7.25;100.00;95427.66;5055059;28;20205;-79
2022/10/22 03:50:34;;;;;;;46.80;23.43;;;;;;;7.29;100.00;95439.25;5053715;28;20213;-79
2022/10/22 03:53:00;;;;;;;45.80;24.67;;;;;;;7.31;100.00;95434.69;5055209;28;20197;-79
2022/10/22 03:55:27;;;;;;;43.40;23.00;;;;;;;7.24;100.00;95439.78;5055328;28;20198;-79
2022/10/22 03:57:55;;;;;;;42.20;24.40;;;;;;;7.24;100.00;95441.59;5054872;28;20190;-78
2022/10/22 04:00:22;;;;;;;42.07;24.20;;;;;;;7.13;100.00;95431.69;5055418;28;20186;-78
2022/10/22 04:02:49;;;;;;;40.27;24.47;;;;;;;7.23;100.00;95429.63;5052575;28;20186;-78
2022/10/22 04:05:16;;;;;;;40.70;24.47;;;;;;;7.22;100.00;95417.66;5054938;28;20198;-79
2022/10/22 04:07:43;;;;;;;40.17;22.67;;;;;;;7.23;100.00;95421.88;5054955;28;20206;-78
2022/10/22 04:10:10;;;;;;;40.03;22.10;;;;;;;7.19;100.00;95434.34;5051903;28;20611;-79
2022/10/22 04:12:36;;;;;;;40.97;22.47;;;;;;;7.13;100.00;95429.09;5054511;28;20202;-78
2022/10/22 04:15:05;;;;;;;41.37;25.13;;;;;;;6.96;100.00;95391.47;5036395;28;20202;-78
2022/10/22 04:17:36;;;;;;;40.33;24.17;;;;;;;7.20;100.00;95415.28;5053132;28;20190;-78
2022/10/22 04:20:04;;;;;;;44.77;26.83;;;;;;;7.25;100.00;95417.31;5054761;28;20198;-78
2022/10/22 04:22:33;;;;;;;47.17;27.30;;;;;;;7.29;100.00;95416.00;5054394;28;20206;-79
2022/10/22 04:25:00;;;;;;;45.10;26.33;;;;;;;7.42;100.00;95416.97;5054732;28;20190;-78
2022/10/22 04:27:30;;;;;;;45.23;27.63;;;;;;;7.51;100.00;95417.66;5054415;28;20203;-78
2022/10/22 04:29:57;;;;;;;44.23;27.20;;;;;;;7.50;100.00;95418.66;5054392;28;20194;-79
2022/10/22 04:32:26;;;;;;;48.60;27.70;;;;;;;7.51;100.00;95422.84;5055767;28;20210;-80
2022/10/22 04:34:53;;;;;;;41.43;26.20;;;;;;;7.55;100.00;95426.69;5057129;28;20190;-78
2022/10/22 04:37:20;;;;;;;45.93;26.70;;;;;;;7.56;100.00;95420.50;5056885;28;20264;-78
2022/10/22 04:39:46;;;;;;;40.23;25.77;;;;;;;7.60;100.00;95421.75;5054428;28;20194;-78
2022/10/22 04:42:13;;;;;;;43.83;27.13;;;;;;;7.66;100.00;95422.81;5052967;28;20265;-79
2022/10/22 04:44:40;;;;;;;42.40;25.03;;;;;;;7.67;100.00;95420.06;5053888;28;20664;-78
2022/10/22 04:47:07;;;;;;;42.40;27.07;;;;;;;7.64;100.00;95420.44;5053989;28;20593;-79
2022/10/22 04:49:35;;;;;;;42.70;25.20;;;;;;;7.75;100.00;95421.75;5053851;28;20190;-79
2022/10/22 04:52:02;;;;;;;39.67;25.67;;;;;;;7.80;100.00;95432.34;5054148;28;20221;-79
2022/10/22 04:54:28;;;;;;;47.03;29.00;;;;;;;7.75;100.00;95427.72;5053720;28;20612;-79
2022/10/22 04:56:55;;;;;;;52.87;30.20;;;;;;;7.73;100.00;95432.28;5052521;28;20203;-79
2022/10/22 04:59:22;;;;;;;51.27;31.57;;;;;;;7.79;100.00;95441.88;5053155;28;20194;-78
2022/10/22 05:01:49;;;;;;;69.07;36.80;;;;;;;7.78;100.00;95423.97;5053270;28;20195;-79
2022/10/22 05:04:18;;;;;;;74.73;38.80;;;;;;;7.90;100.00;95433.69;5053662;28;20281;-79
2022/10/22 05:06:47;;;;;;;78.87;40.60;;;;;;;7.85;100.00;95440.38;5053771;28;20255;-79
2022/10/22 05:09:16;;;;;;;84.30;43.53;;;;;;;7.87;100.00;95454.75;5053593;28;20197;-78
2022/10/22 05:11:47;;;;;;;90.87;49.53;;;;;;;7.93;100.00;95459.19;5052526;28;20210;-78
2022/10/22 05:14:15;;;;;;;85.80;49.37;;;;;;;7.93;100.00;95458.38;5046260;28;20190;-78
2022/10/22 05:16:42;;;;;;;92.77;49.03;;;;;;;7.91;100.00;95461.13;5052754;28;20198;-78
2022/10/22 05:19:09;;;;;;;89.13;48.83;;;;;;;7.93;100.00;95458.38;5053544;28;20205;-79
2022/10/22 05:21:37;;;;;;;77.70;43.67;;;;;;;7.93;100.00;95448.03;5053366;28;20194;-78
2022/10/22 05:24:06;;;;;;;79.23;43.83;;;;;;;7.77;100.00;95438.69;5052730;28;20201;-79
2022/10/22 05:26:33;;;;;;;104.23;54.17;;;;;;;7.84;100.00;95456.88;5053446;28;20194;-79
2022/10/22 05:29:00;;;;;;;80.53;44.90;;;;;;;7.84;100.00;95457.69;5053610;28;20202;-78
2022/10/22 05:31:27;;;;;;;70.43;40.90;;;;;;;7.81;100.00;95457.25;5053451;28;20222;-77
2022/10/22 05:33:55;;;;;;;69.30;37.83;;;;;;;7.74;100.00;95454.56;5052981;28;20198;-79
2022/10/22 05:36:23;;;;;;;66.53;37.13;;;;;;;7.74;100.00;95458.94;5052890;28;20194;-79
2022/10/22 05:38:50;;;;;;;88.63;47.07;;;;;;;7.70;100.00;95460.28;5034028;28;20195;-79
2022/10/22 05:41:20;;;;;;;83.47;44.53;;;;;;;7.60;100.00;95446.81;5052745;28;20195;-79
2022/10/22 05:43:47;;;;;;;86.97;47.20;;;;;;;7.68;100.00;95452.69;5052582;28;20715;-77
2022/10/22 05:46:19;;;;;;;78.90;45.43;;;;;;;7.75;100.00;95458.78;5052620;28;20194;-79
2022/10/22 05:48:49;;;;;;;91.60;45.77;;;;;;;7.71;100.00;95452.34;5052479;28;20191;-78
2022/10/22 05:51:15;;;;;;;99.80;50.70;;;;;;;7.83;100.00;95461.25;5052560;28;20656;-78
2022/10/22 05:53:43;;;;;;;87.40;48.23;;;;;;;7.84;100.00;95449.94;5052644;28;20198;-79
2022/10/22 05:56:13;;;;;;;86.67;46.27;;;;;;;7.95;100.00;95459.81;5041550;28;20221;-79
2022/10/22 05:58:42;;;;;;;67.83;37.97;;;;;;;7.96;100.00;95455.44;5052998;28;20186;-77
2022/10/22 06:01:12;;;;;;;82.27;42.23;;;;;;;8.00;100.00;95448.91;5052246;28;20190;-78
2022/10/22 06:03:39;;;;;;;80.43;44.43;;;;;;;8.05;100.00;95463.91;5051743;28;20598;-77
2022/10/22 06:06:18;;;;;;;85.10;46.23;;;;;;;8.11;100.00;95469.13;5051524;28;20194;-79
2022/10/22 06:08:45;;;;;;;81.27;45.80;;;;;;;8.01;100.00;95466.03;5051430;28;20272;-79
2022/10/22 06:11:12;;;;;;;79.83;45.17;;;;;;;8.15;100.00;95460.03;5052224;28;20218;-78
2022/10/22 06:13:40;;;;;;;81.10;43.97;;;;;;;8.17;100.00;95471.00;5049003;28;20197;-78
2022/10/22 06:16:07;;;;;;;69.90;39.97;;;;;;;8.19;100.00;95460.47;5051810;28;20236;-78
2022/10/22 06:18:34;;;;;;;71.53;40.57;;;;;;;8.23;100.00;95472.84;5051807;28;20656;-79
2022/10/22 06:21:06;;;;;;;73.03;38.53;;;;;;;8.33;100.00;95475.19;5051463;28;20251;-79
2022/10/22 06:23:32;;;;;;;75.23;41.83;;;;;;;8.33;100.00;95470.00;5051521;28;20251;-77
2022/10/22 06:26:00;;;;;;;60.13;37.50;;;;;;;8.36;100.00;95467.84;5051302;28;20209;-77
2022/10/22 06:28:27;;;;;;;64.37;37.73;;;;;;;8.41;100.00;95460.34;5051691;28;20197;-78
2022/10/22 06:30:58;;;;;;;62.93;38.47;;;;;;;8.42;100.00;95463.72;5051949;28;20190;-77
2022/10/22 06:33:24;;;;;;;71.33;39.87;;;;;;;8.48;100.00;95481.13;5052634;28;21009;-80
2022/10/22 06:35:52;;;;;;;72.27;41.00;;;;;;;8.55;100.00;95479.38;5051433;28;20197;-79
2022/10/22 06:38:19;;;;;;;71.87;41.30;;;;;;;8.65;100.00;95472.13;5051584;28;20197;-78
2022/10/22 06:40:46;;;;;;;69.73;39.50;;;;;;;8.75;100.00;95470.00;5056429;28;20190;-79
2022/10/22 06:43:13;;;;;;;65.37;37.27;;;;;;;8.74;100.00;95468.41;5054995;28;20230;-79
2022/10/22 06:45:40;;;;;;;55.23;33.60;;;;;;;8.75;100.00;95467.41;5037405;28;20661;-78
2022/10/22 06:48:09;;;;;;;62.03;33.17;;;;;;;8.82;100.00;95468.28;5051629;28;20696;-77
2022/10/22 06:50:36;;;;;;;49.10;30.33;;;;;;;8.80;100.00;95469.47;5036543;28;20281;-78
2022/10/22 06:53:03;;;;;;;52.93;31.00;;;;;;;8.83;100.00;95471.69;5050774;28;20650;-80
2022/10/22 06:55:30;;;;;;;59.40;31.37;;;;;;;8.86;100.00;95471.31;5050907;28;20560;-78
2022/10/22 06:57:56;;;;;;;53.00;31.07;;;;;;;8.95;100.00;95475.34;5051002;28;20190;-79
2022/10/22 07:00:23;;;;;;;50.40;30.97;;;;;;;9.01;100.00;95475.41;5050593;28;20265;-78
2022/10/22 07:02:52;;;;;;;46.93;28.80;;;;;;;9.10;100.00;95470.88;5051309;28;20189;-78
2022/10/22 07:05:21;;;;;;;45.30;28.63;;;;;;;9.20;100.00;95483.53;5051086;28;20623;-79
2022/10/22 07:07:48;;;;;;;44.37;27.27;;;;;;;9.21;100.00;95474.75;5050998;28;20193;-77
2022/10/22 07:10:14;;;;;;;43.30;26.93;;;;;;;9.15;100.00;95472.94;5051009;28;20190;-80
2022/10/22 07:12:41;;;;;;;44.63;27.37;;;;;;;9.19;100.00;95477.53;5050095;28;20225;-79
2022/10/22 07:15:09;;;;;;;51.57;29.37;;;;;;;9.29;100.00;95467.66;5050754;28;20194;-78
2022/10/22 07:17:36;;;;;;;48.23;29.17;;;;;;;9.44;100.00;95470.91;5050886;28;20190;-78
2022/10/22 07:20:02;;;;;;;44.87;29.00;;;;;;;9.49;100.00;95465.19;5049682;28;20186;-79
2022/10/22 07:22:31;;;;;;;46.57;28.93;;;;;;;9.51;100.00;95469.19;5050323;28;20683;-77
2022/10/22 07:24:58;;;;;;;49.30;29.40;;;;;;;9.54;100.00;95463.59;5050684;28;20186;-77
2022/10/22 07:27:25;;;;;;;48.47;29.93;;;;;;;9.64;100.00;95468.44;5048359;28;20198;-78
2022/10/22 07:29:52;;;;;;;49.07;28.07;;;;;;;9.69;100.00;95458.28;5050138;28;20242;-78
2022/10/22 07:32:18;;;;;;;44.07;28.47;;;;;;;9.81;100.00;95461.16;5050475;28;20596;-77
2022/10/22 07:34:45;;;;;;;46.00;26.47;;;;;;;9.84;100.00;95455.56;5050951;28;20201;-78
2022/10/22 07:37:12;;;;;;;46.33;26.40;;;;;;;9.92;100.00;95464.00;5050948;28;20198;-79
2022/10/22 07:39:40;;;;;;;42.77;24.13;;;;;;;10.02;99.96;95459.22;5050578;28;20198;-78
2022/10/22 07:42:07;;;;;;;40.43;25.00;;;;;;;10.11;99.83;95459.84;5050327;28;20193;-79
2022/10/22 07:44:34;;;;;;;33.30;22.00;;;;;;;10.18;99.59;95461.53;5050265;28;20253;-78
2022/10/22 07:47:01;;;;;;;40.07;24.83;;;;;;;10.27;98.10;95449.16;5050628;28;20201;-78
2022/10/22 07:49:27;;;;;;;42.60;25.17;;;;;;;10.39;97.47;95444.19;5050660;28;20267;-79
2022/10/22 07:51:55;;;;;;;42.20;25.33;;;;;;;10.46;96.68;95447.59;5050741;28;20217;-78
2022/10/22 07:54:22;;;;;;;42.27;23.90;;;;;;;10.47;97.21;95447.41;5050502;28;20285;-78
2022/10/22 07:56:50;;;;;;;45.77;25.17;;;;;;;10.53;97.19;95444.03;5050420;28;20722;-78
2022/10/22 07:59:17;;;;;;;45.87;26.03;;;;;;;10.64;96.31;95446.03;5050275;28;20198;-77
2022/10/22 08:01:45;;;;;;;47.37;25.30;;;;;;;10.67;96.43;95450.84;5050032;28;20251;-77
2022/10/22 08:04:12;;;;;;;43.20;25.83;;;;;;;10.68;96.17;95449.81;5049832;28;20240;-78
2022/10/22 08:06:39;;;;;;;43.87;25.23;;;;;;;10.66;95.97;95425.03;5049854;28;20588;-77
2022/10/22 08:09:06;;;;;;;45.07;24.97;;;;;;;10.88;94.61;95428.25;5050349;28;20199;-77
2022/10/22 08:11:33;;;;;;;42.27;25.03;;;;;;;10.98;94.06;95429.44;5050395;28;20672;-77
2022/10/22 08:14:01;;;;;;;40.10;25.77;;;;;;;11.11;93.52;95436.44;5050491;28;20222;-78
2022/10/22 08:16:30;;;;;;;49.40;25.17;;;;;;;11.09;93.12;95435.81;5049983;28;20198;-77
2022/10/22 08:18:57;;;;;;;38.63;25.03;;;;;;;11.09;92.82;95435.81;5050332;28;20201;-77
2022/10/22 08:21:23;;;;;;;43.37;26.03;;;;;;;11.08;92.35;95419.41;5049755;28;20202;-77
2022/10/22 08:23:50;;;;;;;45.77;27.17;;;;;;;11.29;91.12;95424.38;5049863;28;20197;-77
2022/10/22 08:26:17;;;;;;;41.80;25.53;;;;;;;11.35;91.58;95426.19;5050294;28;20576;-77
2022/10/22 08:28:44;;;;;;;40.67;26.27;;;;;;;11.52;91.48;95428.34;5049961;28;20252;-76
2022/10/22 08:31:15;;;;;;;40.17;25.20;;;;;;;11.76;89.36;95430.31;5049942;28;20190;-77
2022/10/22 08:33:42;;;;;;;44.03;25.60;;;;;;;11.97;88.66;95426.63;5049878;28;20213;-78
2022/10/22 08:36:09;;;;;;;43.27;25.87;;;;;;;12.20;87.70;95427.72;5053541;28;20252;-77
2022/10/22 08:38:36;;;;;;;43.57;27.33;;;;;;;12.54;86.79;95431.72;5053349;28;20194;-77
2022/10/22 08:41:09;;;;;;;61.53;26.73;;;;;;;12.85;85.02;95429.09;5053450;28;20194;-78
2022/10/22 08:44:00;;;;;;;49.90;26.00;;;;;;;13.29;82.91;95425.56;5053174;28;20648;-78
2022/10/22 08:46:43;;;;;;;44.30;25.27;;;;;;;13.57;81.22;95420.66;5050552;28;20198;-78
2022/10/22 08:49:17;;;;;;;35.67;21.53;;;;;;;13.88;79.40;95430.13;5053061;28;20190;-79
2022/10/22 08:51:44;;;;;;;36.87;21.37;;;;;;;14.37;78.29;95423.91;5052372;28;20769;-78
2022/10/22 08:54:25;;;;;;;42.43;23.30;;;;;;;14.87;76.17;95436.69;5053362;28;20190;-78
2022/10/22 08:57:04;;;;;;;40.23;25.23;;;;;;;15.35;73.95;95437.31;5051714;28;20193;-79
2022/10/22 08:59:42;;;;;;;37.53;25.00;;;;;;;15.74;72.02;95436.63;5053873;28;20197;-79
2022/10/22 09:02:26;;;;;;;39.90;24.67;;;;;;;15.95;69.55;95439.69;5051221;28;20205;-79
2022/10/22 09:05:02;;;;;;;53.77;24.40;;;;;;;16.20;68.35;95437.56;5046538;28;20244;-78
2022/10/22 09:07:29;;;;;;;42.07;24.53;;;;;;;16.50;66.41;95432.88;5052414;28;20186;-78
2022/10/22 09:09:59;;;;;;;37.17;24.30;;;;;;;16.79;66.09;95429.22;5051760;28;20194;-78
2022/10/22 09:12:28;;;;;;;45.20;23.27;;;;;;;17.05;65.63;95430.44;5034420;28;20261;-78
2022/10/22 09:14:55;;;;;;;32.20;21.83;;;;;;;17.13;64.59;95416.09;5052641;28;20202;-78
2022/10/22 09:17:32;;;;;;;35.87;22.17;;;;;;;17.36;64.27;95426.44;5053066;28;20267;-78
2022/10/22 09:20:08;;;;;;;36.33;21.70;;;;;;;17.73;62.63;95417.00;5052490;28;20330;-79
2022/10/22 09:22:42;;;;;;;29.50;21.27;;;;;;;17.97;60.99;95417.56;5052898;28;20198;-78
2022/10/22 09:25:19;;;;;;;31.83;20.93;;;;;;;18.32;60.37;95417.19;5050083;28;20178;-78
2022/10/22 09:27:47;;;;;;;32.43;21.57;;;;;;;18.40;60.03;95408.84;5049213;28;20181;-78
2022/10/22 09:30:17;;;;;;;36.73;21.10;;;;;;;18.67;59.23;95407.06;5052716;28;20186;-78
2022/10/22 09:32:45;;;;;;;31.88;21.65;;;;;;;19.11;58.24;95408.47;5052561;28;20214;-78
2022/10/22 09:35:13;;;;;;;35.88;23.38;;;;;;;19.53;56.90;95427.00;5051769;28;20191;-77
2022/10/22 09:37:48;;;;;;;37.75;23.27;;;;;;;19.81;55.63;95407.34;5052367;28;20218;-78
2022/10/22 09:40:16;;;;;;;38.25;23.05;;;;;;;20.20;54.82;95421.78;5052122;28;20270;-77
2022/10/22 09:42:44;;;;;;;32.83;21.58;;;;;;;20.67;53.59;95411.09;5048906;28;20218;-77
2022/10/22 09:45:19;;;;;;;39.05;22.33;;;;;;;21.11;51.94;95405.34;5052430;28;20197;-76
2022/10/22 09:47:47;;;;;;;33.60;22.17;;;;;;;21.44;50.15;95397.63;5047011;28;20259;-77
2022/10/22 09:50:26;;;;;;;40.40;22.63;;;;;;;21.86;48.84;95399.13;5052485;28;20190;-77
2022/10/22 09:53:04;;;;;;;38.63;23.40;;;;;;;22.11;48.14;95396.41;5050869;28;20285;-77
2022/10/22 09:55:30;;;;;;;37.42;22.10;;;;;;;22.21;48.03;95401.69;5050120;28;20213;-78
2022/10/22 09:58:00;;;;;;;33.47;22.38;;;;;;;22.56;46.95;95411.31;5052313;28;20186;-77
2022/10/22 10:00:27;;;;;;;35.75;22.10;;;;;;;22.88;46.30;95405.56;5049854;28;20190;-77
2022/10/22 10:02:57;;;;;;;36.05;21.55;;;;;;;23.34;45.74;95393.53;5052118;28;20191;-78
2022/10/22 10:05:29;;;;;;;37.60;23.45;;;;;;;22.98;45.27;95386.91;5052467;28;20247;-78
2022/10/22 10:07:57;;;;;;;31.63;21.65;;;;;;;23.10;45.81;95390.00;5051257;28;20309;-77
2022/10/22 10:10:35;;;;;;;36.30;21.88;;;;;;;23.10;45.77;95387.34;5051559;28;20244;-77
2022/10/22 10:13:13;;;;;;;30.50;21.40;;;;;;;23.40;45.25;95392.44;5051458;28;20272;-78
2022/10/22 10:15:46;;;;;;;40.40;21.50;;;;;;;23.66;44.27;95395.63;5052480;28;20197;-77
2022/10/22 10:18:23;;;;;;;33.58;22.55;;;;;;;24.02;43.44;95394.16;5052059;28;20202;-78
2022/10/22 10:20:59;;;;;;;40.47;23.08;;;;;;;24.31;41.89;95385.31;5052030;28;20182;-77
2022/10/22 10:23:33;;;;;;;35.45;21.58;;;;;;;24.50;42.24;95380.84;5042277;28;20215;-77
2022/10/22 10:26:07;;;;;;;28.27;20.92;;;;;;;24.40;41.41;95389.72;5036102;28;20189;-77
2022/10/22 10:28:55;;;;;;;30.40;21.50;;;;;;;23.94;42.21;95380.72;5051715;28;20200;-77
2022/10/22 10:31:34;;;;;;;34.78;22.17;;;;;;;24.13;42.81;95381.56;5044165;28;20182;-77
2022/10/22 10:34:14;;;;;;;35.25;21.95;;;;;;;24.45;42.29;95378.22;5047136;28;20263;-77
2022/10/22 10:36:54;;;;;;;31.85;21.05;;;;;;;25.02;42.14;95372.59;5049437;28;20649;-77
2022/10/22 10:39:30;;;;;;;37.05;20.75;;;;;;;25.62;40.80;95370.03;5051755;28;20563;-77
2022/10/22 10:42:09;;;;;;;33.55;22.10;;;;;;;25.97;38.38;95360.56;5050649;28;20190;-77
2022/10/22 10:45:03;;;;;;;31.90;20.25;;;;;;;26.12;38.11;95360.28;5050631;28;20657;-77
2022/10/22 10:47:47;;;;;;;33.45;20.63;;;;;;;26.28;37.42;95357.00;5048625;28;20194;-78
2022/10/22 10:50:29;;;;;;;30.23;20.50;;;;;;;26.33;37.68;95351.56;5049800;28;20188;-77
2022/10/22 10:53:07;;;;;;;32.25;20.67;;;;;;;26.29;37.21;95342.56;5051498;28;20194;-77
2022/10/22 10:55:42;;;;;;;32.78;20.58;;;;;;;26.53;36.76;95329.00;5051363;28;20185;-77
2022/10/22 10:58:20;;;;;;;26.08;20.25;;;;;;;26.59;36.59;95327.78;5051173;28;20185;-77
2022/10/22 11:00:55;;;;;;;30.23;19.33;;;;;;;26.59;36.44;95321.66;5049939;28;20190;-79
2022/10/22 11:03:47;;;;;;;28.63;18.90;;;;;;;26.52;37.02;95318.63;5051239;28;20573;-78
2022/10/22 11:06:19;;;;;;;26.48;17.95;;;;;;;26.83;36.31;95317.66;5047827;28;20571;-78
2022/10/22 11:08:53;;;;;;;29.35;19.35;;;;;;;26.10;37.01;95304.59;5051133;28;20193;-77
2022/10/22 11:11:29;;;;;;;25.40;17.27;;;;;;;26.02;38.23;95310.63;5051274;28;20216;-77
2022/10/22 11:14:01;;;;;;;33.15;18.85;;;;;;;26.41;36.27;95304.72;5051097;28;20442;-78
2022/10/22 11:16:35;;;;;;;28.88;18.92;;;;;;;26.65;36.30;95296.44;5051299;28;20186;-77
2022/10/22 11:19:08;;;;;;;24.50;17.92;;;;;;;26.85;35.34;95290.66;5048949;28;20252;-78
2022/10/22 11:21:40;;;;;;;25.73;16.75;;;;;;;27.11;36.12;95285.47;5050821;28;20186;-77
2022/10/22 11:24:18;;;;;;;24.38;17.45;;;;;;;27.38;34.88;95279.94;5051216;28;20182;-78
2022/10/22 11:26:48;;;;;;;27.02;16.73;;;;;;;27.58;34.80;95280.22;5048948;28;20185;-78
2022/10/22 11:29:20;;;;;;;23.05;16.02;;;;;;;27.80;34.52;95282.00;5051307;28;20259;-79
2022/10/22 11:31:47;;;;;;;26.75;17.17;;;;;;;27.17;34.18;95278.91;5051345;28;20653;-80